Harvester, Missouri
Current Conditions -  °F | °C
As of 7:54 AM on Friday 31 Oct 2014 (Local Time) from KSUS Reporting Station
Overcast Overcast  
Wind Chill: 40°   Ceiling: 3300
Heat Index: 47°   Visibility: 10mi
Dew Point: 35°   Wind: 18mph
Humidity: 63%   Direction: 340°NNW
Pressure: 30.21"   Gusts: 28mph
Location:  38.7493°N, 90.5423°W
Report Text: KSUS 311254Z 34016G24KT 10SM BKN033 OVC042 08/02 A3021 RMK AO2 PK WND 34027/1238 SLP231 T00830017
Loading
Personal Weather Stations






























Interactive Weather Map
Tropical Storm Tracking
New forecast layout! Learn more

10-Day Weather Forecast

Advertisements
Track Severe Weather on mobile